createdAt,value
2022-09-05T00:01:47.921Z,2.60
2022-09-05T00:04:52.135Z,2.80
2022-09-05T00:08:00.409Z,2.50
2022-09-05T00:11:42.736Z,2.50
2022-09-05T00:15:16.460Z,2.70
2022-09-05T00:20:00.083Z,2.90
2022-09-05T00:24:30.499Z,2.80
2022-09-05T00:25:30.500Z,3.80
2022-09-05T00:28:26.287Z,3.50
2022-09-05T00:31:55.940Z,3.10
2022-09-05T00:34:51.069Z,3.10
2022-09-05T00:37:49.376Z,2.70
2022-09-05T00:40:44.217Z,2.80
2022-09-05T00:43:34.197Z,2.70
2022-09-05T00:46:32.023Z,2.70
2022-09-05T00:49:33.349Z,2.70
2022-09-05T00:52:43.149Z,2.70
2022-09-05T00:56:18.896Z,3.20
2022-09-05T00:59:42.016Z,2.50
2022-09-05T01:03:12.702Z,2.40
2022-09-05T01:06:09.064Z,2.70
2022-09-05T01:09:26.224Z,2.80
2022-09-05T01:12:43.887Z,2.70
2022-09-05T01:16:16.809Z,2.80
2022-09-05T01:19:08.713Z,2.60
2022-09-05T01:22:20.131Z,3.30
2022-09-05T01:25:47.126Z,3.50
2022-09-05T01:29:16.293Z,3.20
2022-09-05T01:32:37.958Z,3.70
2022-09-05T01:36:03.798Z,2.80
2022-09-05T01:40:12.410Z,2.50
2022-09-05T01:42:37.152Z,2.70
2022-09-05T01:45:44.970Z,2.80
2022-09-05T01:48:34.998Z,2.60
2022-09-05T01:51:47.352Z,2.80
2022-09-05T01:55:10.421Z,2.90
2022-09-05T01:58:22.125Z,2.50
2022-09-05T02:01:32.477Z,2.70
2022-09-05T02:04:30.836Z,3.10
2022-09-05T02:07:37.924Z,3.00
2022-09-05T02:10:54.034Z,3.40
2022-09-05T02:13:49.622Z,3.10
2022-09-05T02:16:46.684Z,3.30
2022-09-05T02:19:43.894Z,3.50
2022-09-05T02:22:44.792Z,3.90
2022-09-05T02:26:10.029Z,3.50
2022-09-05T02:29:07.420Z,4.30
2022-09-05T02:32:03.584Z,5.10
2022-09-05T02:35:15.477Z,4.70
2022-09-05T02:39:18.590Z,6.30
2022-09-05T02:45:11.158Z,5.90
2022-09-05T02:45:15.332Z,6.40
2022-09-05T02:48:32.314Z,5.60
2022-09-05T02:57:27.163Z,4.90
2022-09-05T02:57:32.669Z,4.70
2022-09-05T02:58:07.073Z,4.70
2022-09-05T03:01:10.266Z,4.80
2022-09-05T03:04:09.776Z,5.70
2022-09-05T03:07:20.468Z,6.40
2022-09-05T03:10:14.731Z,6.80
2022-09-05T03:13:12.257Z,5.90
2022-09-05T03:16:28.566Z,6.10
2022-09-05T03:19:51.537Z,5.20
2022-09-05T03:23:12.853Z,5.80
2022-09-05T03:26:08.914Z,5.80
2022-09-05T03:29:13.330Z,4.50
2022-09-05T03:32:27.376Z,5.40
2022-09-05T03:35:43.843Z,5.80
2022-09-05T03:38:50.333Z,6.10
2022-09-05T03:42:05.897Z,5.90
2022-09-05T03:45:36.961Z,5.50
2022-09-05T03:48:35.376Z,8.50
2022-09-05T03:57:06.281Z,6.70
2022-09-05T03:57:10.815Z,6.70
2022-09-05T03:58:31.817Z,6.60
2022-09-05T04:07:12.010Z,7.40
2022-09-05T04:08:13.865Z,4.90
2022-09-05T04:08:27.806Z,5.50
2022-09-05T04:11:07.483Z,5.60
2022-09-05T04:14:02.022Z,6.30
2022-09-05T04:16:50.505Z,6.20
2022-09-05T04:19:43.505Z,4.90
2022-09-05T04:23:01.084Z,5.90
2022-09-05T04:26:12.134Z,6.20
2022-09-05T04:29:15.122Z,5.80
2022-09-05T04:32:32.910Z,5.50
2022-09-05T04:35:31.011Z,6.40
2022-09-05T04:38:19.477Z,5.50
2022-09-05T04:41:39.291Z,5.80
2022-09-05T04:44:42.147Z,5.10
2022-09-05T04:47:38.350Z,5.30
2022-09-05T04:50:26.021Z,5.70
2022-09-05T04:54:02.219Z,6.40
2022-09-05T04:56:53.196Z,5.30
2022-09-05T05:02:59.671Z,5.60
2022-09-05T05:06:13.326Z,6.00
2022-09-05T05:06:38.094Z,6.20
2022-09-05T05:09:34.021Z,5.40
2022-09-05T05:17:59.128Z,4.80
2022-09-05T05:18:15.637Z,5.70
2022-09-05T05:19:42.003Z,5.40
2022-09-05T05:22:29.446Z,6.50
2022-09-05T05:25:15.242Z,6.30
2022-09-05T05:28:15.540Z,6.50
2022-09-05T05:31:31.714Z,7.50
2022-09-05T05:34:23.851Z,6.50
2022-09-05T05:37:53.446Z,7.00
2022-09-05T05:40:51.165Z,7.90
2022-09-05T05:43:46.269Z,7.00
2022-09-05T05:46:38.057Z,7.80
2022-09-05T05:49:52.739Z,7.00
2022-09-05T05:52:41.134Z,9.50
2022-09-05T05:55:53.099Z,8.30
2022-09-05T05:58:54.690Z,9.30
2022-09-05T06:01:56.003Z,8.60
2022-09-05T06:05:03.781Z,11.30
2022-09-05T06:10:52.564Z,11.80
2022-09-05T06:15:02.641Z,9.30
2022-09-05T06:15:25.392Z,10.70
2022-09-05T06:18:24.406Z,11.70
2022-09-05T06:22:06.057Z,12.40
2022-09-05T06:25:17.454Z,10.90
2022-09-05T06:28:19.308Z,10.50
2022-09-05T06:31:30.615Z,9.10
2022-09-05T06:34:57.056Z,7.60
2022-09-05T06:38:16.448Z,8.70
2022-09-05T06:41:40.169Z,6.80
2022-09-05T06:44:38.032Z,7.00
2022-09-05T06:47:34.138Z,6.90
2022-09-05T06:50:27.273Z,6.80
2022-09-05T06:53:35.686Z,6.50
2022-09-05T06:56:42.719Z,6.70
2022-09-05T07:00:17.644Z,6.20
2022-09-05T07:03:20.111Z,5.80
2022-09-05T07:07:00.910Z,5.50
2022-09-05T07:10:03.843Z,6.40
2022-09-05T07:13:25.261Z,6.50
2022-09-05T07:16:47.799Z,6.10
2022-09-05T07:19:54.818Z,5.40
2022-09-05T07:24:06.979Z,5.30
2022-09-05T07:26:49.695Z,4.70
2022-09-05T07:29:40.821Z,4.70
2022-09-05T07:32:45.651Z,5.80
2022-09-05T07:35:41.667Z,4.80
2022-09-05T07:38:38.245Z,5.50
2022-09-05T07:41:39.971Z,5.50
2022-09-05T07:44:39.336Z,4.90
2022-09-05T07:47:32.442Z,5.70
2022-09-05T07:54:59.138Z,4.40
2022-09-05T07:56:49.870Z,4.50
2022-09-05T08:00:25.843Z,4.00
2022-09-05T08:03:15.700Z,4.60
2022-09-05T08:06:06.581Z,4.20
2022-09-05T08:10:05.995Z,3.80
2022-09-05T08:12:28.537Z,4.10
2022-09-05T08:15:23.015Z,4.10
2022-09-05T08:18:31.265Z,4.10
2022-09-05T08:21:30.712Z,3.80
2022-09-05T08:24:24.049Z,3.80
2022-09-05T08:27:17.121Z,4.00
2022-09-05T08:30:25.154Z,3.60
2022-09-05T08:33:35.239Z,4.20
2022-09-05T08:36:37.277Z,3.80
2022-09-05T08:39:27.419Z,3.60
2022-09-05T08:42:29.625Z,4.20
2022-09-05T08:46:40.902Z,4.00
2022-09-05T08:48:50.015Z,3.40
2022-09-05T08:51:41.186Z,3.80
2022-09-05T08:55:09.505Z,3.00
2022-09-05T08:58:05.207Z,3.30
2022-09-05T09:05:01.547Z,3.10
2022-09-05T09:07:50.751Z,3.10
2022-09-05T09:14:12.213Z,3.30
2022-09-05T09:17:07.635Z,3.60
2022-09-05T09:20:17.647Z,3.20
2022-09-05T09:23:32.906Z,3.10
2022-09-05T09:26:28.320Z,3.50
2022-09-05T09:29:18.370Z,2.90
2022-09-05T09:32:08.138Z,2.70
2022-09-05T09:35:10.362Z,3.30
2022-09-05T09:38:08.201Z,3.40
2022-09-05T09:41:12.868Z,3.10
2022-09-05T09:44:43.616Z,3.60
2022-09-05T09:47:36.187Z,3.00
2022-09-05T09:50:59.240Z,3.00
2022-09-05T09:54:04.155Z,2.90
2022-09-05T09:57:23.868Z,3.50
2022-09-05T10:00:24.356Z,2.70
2022-09-05T10:10:04.376Z,3.50
2022-09-05T10:10:52.197Z,3.40
2022-09-05T10:11:05.227Z,3.40
2022-09-05T10:13:56.837Z,2.70
2022-09-05T10:17:22.947Z,2.90
2022-09-05T10:20:49.666Z,2.50
2022-09-05T10:24:38.797Z,2.70
2022-09-05T10:28:01.122Z,3.80
2022-09-05T10:32:39.071Z,2.90
2022-09-05T10:35:23.318Z,2.60
2022-09-05T10:37:55.016Z,3.40
2022-09-05T10:41:16.147Z,3.30
2022-09-05T10:44:01.534Z,2.60
2022-09-05T10:47:16.581Z,2.30
2022-09-05T10:50:25.570Z,2.50
2022-09-05T10:53:39.022Z,2.10
2022-09-05T10:56:31.791Z,2.20
2022-09-05T11:01:29.693Z,2.10
2022-09-05T11:02:57.831Z,1.90
2022-09-05T11:06:09.251Z,2.30
2022-09-05T11:08:59.009Z,2.30
2022-09-05T11:11:52.489Z,2.70
2022-09-05T11:14:54.129Z,2.50
2022-09-05T11:17:43.271Z,2.00
2022-09-05T11:20:46.699Z,2.30
2022-09-05T11:23:57.607Z,2.30
2022-09-05T11:27:23.861Z,2.80
2022-09-05T11:30:28.632Z,2.50
2022-09-05T11:39:53.053Z,2.90
2022-09-05T11:39:59.544Z,2.40
2022-09-05T11:40:34.257Z,2.30
2022-09-05T11:43:51.508Z,1.90
2022-09-05T11:47:29.895Z,2.30
2022-09-05T11:50:52.944Z,2.30
2022-09-05T11:53:46.830Z,2.30
2022-09-05T11:57:34.438Z,2.00
2022-09-05T12:03:58.130Z,2.30
2022-09-05T12:07:31.587Z,2.30
2022-09-05T12:10:46.725Z,2.30
2022-09-05T12:13:52.453Z,2.40
2022-09-05T12:17:10.058Z,2.00
2022-09-05T12:20:16.791Z,2.80
2022-09-05T12:23:49.335Z,2.10
2022-09-05T12:27:40.467Z,2.20
2022-09-05T12:29:50.470Z,2.30
2022-09-05T12:33:58.050Z,2.00
2022-09-05T12:40:30.257Z,2.10
2022-09-05T12:41:36.422Z,2.20
2022-09-05T12:43:53.095Z,2.20
2022-09-05T12:46:26.387Z,2.00
2022-09-05T12:49:35.018Z,2.40
2022-09-05T12:52:38.339Z,2.20
2022-09-05T12:55:30.976Z,1.90
2022-09-05T13:03:02.202Z,2.50
2022-09-05T13:03:02.327Z,2.70
2022-09-05T13:05:02.821Z,2.10
2022-09-05T13:07:57.089Z,2.00
2022-09-05T13:14:46.108Z,2.50
2022-09-05T13:14:54.124Z,2.70
2022-09-05T13:17:31.531Z,2.30
2022-09-05T13:20:35.613Z,1.80
2022-09-05T13:23:42.024Z,2.10
2022-09-05T13:26:43.340Z,2.00
2022-09-05T13:31:13.770Z,1.90
2022-09-05T13:37:55.595Z,1.90
2022-09-05T13:38:16.419Z,1.70
2022-09-05T13:39:44.301Z,1.90
2022-09-05T13:42:46.586Z,2.00
2022-09-05T13:45:48.183Z,2.30
2022-09-05T13:52:05.325Z,1.80
2022-09-05T13:55:29.827Z,2.30
2022-09-05T13:58:54.426Z,2.00
2022-09-05T14:05:19.587Z,2.20
2022-09-05T14:08:18.145Z,2.70
2022-09-05T14:11:18.535Z,1.60
2022-09-05T14:15:08.279Z,1.90
2022-09-05T14:18:03.142Z,2.00
2022-09-05T14:21:17.245Z,1.90
2022-09-05T14:24:14.860Z,2.10
2022-09-05T14:27:00.656Z,2.10
2022-09-05T14:29:41.857Z,2.90
2022-09-05T14:37:40.565Z,2.00
2022-09-05T14:37:46.008Z,2.10
2022-09-05T14:38:19.814Z,2.10
2022-09-05T14:41:13.432Z,2.20
2022-09-05T14:44:17.534Z,2.10
2022-09-05T14:47:02.462Z,2.20
2022-09-05T14:49:44.493Z,2.30
2022-09-05T14:52:29.079Z,2.20
2022-09-05T15:02:46.050Z,2.50
2022-09-05T15:02:47.947Z,2.80
2022-09-05T15:06:39.320Z,2.30
2022-09-05T15:12:12.628Z,2.40
2022-09-05T15:12:25.844Z,2.20
2022-09-05T15:15:00.795Z,2.80
2022-09-05T15:17:31.082Z,2.40
2022-09-05T15:20:08.414Z,2.60
2022-09-05T15:22:41.981Z,2.50
2022-09-05T15:25:17.772Z,2.40
2022-09-05T15:27:47.407Z,2.20
2022-09-05T15:30:35.224Z,2.40
2022-09-05T15:33:25.374Z,2.50
2022-09-05T15:35:55.708Z,2.10
2022-09-05T15:38:55.664Z,2.40
2022-09-05T15:41:25.062Z,2.30
2022-09-05T15:44:10.114Z,2.60
2022-09-05T15:46:46.464Z,3.20
2022-09-05T15:49:32.288Z,2.50
2022-09-05T15:52:05.278Z,3.00
2022-09-05T15:54:40.778Z,2.30
2022-09-05T15:57:14.488Z,2.20
2022-09-05T15:59:51.995Z,2.50
2022-09-05T16:02:28.508Z,2.40
2022-09-05T16:10:34.880Z,2.30
2022-09-05T16:10:39.977Z,3.30
2022-09-05T16:14:37.644Z,2.70
2022-09-05T16:23:11.452Z,2.50
2022-09-05T16:23:28.261Z,2.70
2022-09-05T16:23:40.466Z,2.70
2022-09-05T16:26:24.972Z,2.50
2022-09-05T16:29:00.596Z,2.70
2022-09-05T16:32:02.400Z,2.60
2022-09-05T16:35:09.482Z,2.90
2022-09-05T16:37:42.291Z,2.90
2022-09-05T16:40:34.936Z,2.70
2022-09-05T16:43:07.150Z,3.40
2022-09-05T16:46:06.552Z,3.20
2022-09-05T16:48:37.547Z,3.30
2022-09-05T16:51:35.330Z,3.30
2022-09-05T16:54:32.337Z,3.60
2022-09-05T16:57:09.145Z,3.20
2022-09-05T16:59:41.339Z,3.20
2022-09-05T17:02:31.224Z,3.70
2022-09-05T17:05:08.345Z,3.10
2022-09-05T17:07:48.480Z,3.40
2022-09-05T17:10:25.828Z,3.30
2022-09-05T17:12:55.341Z,4.30
2022-09-05T17:15:35.897Z,3.60
2022-09-05T17:18:19.519Z,4.10
2022-09-05T17:20:56.929Z,4.10
2022-09-05T17:29:21.396Z,4.30
2022-09-05T17:31:23.784Z,4.20
2022-09-05T17:32:39.139Z,5.10
2022-09-05T17:35:21.944Z,4.80
2022-09-05T17:38:11.650Z,4.10
2022-09-05T17:40:50.522Z,4.20
2022-09-05T17:43:34.079Z,3.70
2022-09-05T17:46:22.994Z,4.70
2022-09-05T17:49:18.609Z,4.40
2022-09-05T17:52:02.344Z,4.40
2022-09-05T17:54:33.532Z,4.30
2022-09-05T17:57:28.929Z,4.60
2022-09-05T18:00:05.424Z,4.50
2022-09-05T18:02:54.679Z,3.90
2022-09-05T18:05:58.373Z,5.30
2022-09-05T18:08:45.735Z,4.30
2022-09-05T18:11:25.659Z,4.60
2022-09-05T18:14:01.600Z,3.90
2022-09-05T18:16:48.295Z,4.30
2022-09-05T18:19:57.717Z,4.30
2022-09-05T18:22:36.972Z,4.30
2022-09-05T18:25:30.756Z,4.50
2022-09-05T18:28:28.640Z,4.80
2022-09-05T18:31:41.497Z,4.40
2022-09-05T18:34:13.884Z,4.40
2022-09-05T18:36:43.193Z,4.10
2022-09-05T18:39:26.318Z,4.00
2022-09-05T18:42:34.507Z,4.20
2022-09-05T18:47:53.133Z,4.30
2022-09-05T18:50:32.344Z,4.80
2022-09-05T18:53:05.683Z,4.20
2022-09-05T18:56:20.768Z,4.70
2022-09-05T18:59:09.590Z,4.60
2022-09-05T19:02:04.627Z,4.50
2022-09-05T19:04:44.932Z,4.60
2022-09-05T19:07:22.511Z,4.30
2022-09-05T19:10:34.917Z,5.00
2022-09-05T19:13:17.785Z,4.00
2022-09-05T19:16:18.256Z,4.40
2022-09-05T19:19:31.442Z,4.60
2022-09-05T19:22:52.592Z,4.80
2022-09-05T19:24:50.357Z,4.50
2022-09-05T19:29:50.215Z,5.90
2022-09-05T19:37:09.789Z,5.00
2022-09-05T19:37:09.979Z,5.20
2022-09-05T19:37:15.105Z,5.20
2022-09-05T19:42:52.641Z,4.10
2022-09-05T19:47:29.128Z,4.70
2022-09-05T19:47:37.190Z,4.30
2022-09-05T19:50:27.377Z,4.60
2022-09-05T19:53:06.804Z,4.30
2022-09-05T19:55:38.839Z,5.00
2022-09-05T19:58:20.076Z,4.80
2022-09-05T20:01:13.532Z,5.20
2022-09-05T20:03:43.862Z,4.70
2022-09-05T20:06:31.129Z,5.00
2022-09-05T20:09:18.864Z,5.80
2022-09-05T20:11:57.041Z,5.40
2022-09-05T20:14:29.081Z,6.20
2022-09-05T20:17:18.924Z,5.20
2022-09-05T20:19:47.698Z,4.30
2022-09-05T20:22:48.234Z,4.50
2022-09-05T20:25:36.053Z,5.00
2022-09-05T20:28:10.260Z,4.40
2022-09-05T20:30:44.960Z,4.10
2022-09-05T20:33:40.225Z,4.30
2022-09-05T20:41:13.995Z,3.70
2022-09-05T20:43:35.355Z,4.10
2022-09-05T20:43:36.698Z,3.80
2022-09-05T20:44:51.772Z,3.90
2022-09-05T20:54:04.368Z,3.60
2022-09-05T20:54:23.017Z,4.40
2022-09-05T20:54:25.555Z,4.10
2022-09-05T20:56:22.704Z,4.10
2022-09-05T20:58:51.785Z,4.40
2022-09-05T21:01:22.986Z,4.10
2022-09-05T21:03:57.830Z,4.50
2022-09-05T21:06:33.993Z,4.20
2022-09-05T21:09:24.325Z,3.80
2022-09-05T21:11:59.083Z,4.30
2022-09-05T21:14:29.138Z,4.40
2022-09-05T21:17:01.572Z,4.10
2022-09-05T21:19:53.450Z,3.90
2022-09-05T21:22:39.381Z,3.70
2022-09-05T21:25:42.201Z,3.90
2022-09-05T21:28:37.324Z,3.80
2022-09-05T21:31:12.214Z,4.30
2022-09-05T21:33:45.413Z,4.20
2022-09-05T21:36:15.620Z,4.20
2022-09-05T21:38:44.051Z,4.10
2022-09-05T21:41:16.421Z,4.60
2022-09-05T21:47:37.648Z,4.70
2022-09-05T21:47:39.617Z,5.00
2022-09-05T21:49:22.716Z,4.50
2022-09-05T21:51:51.118Z,4.40
2022-09-05T21:59:14.898Z,4.10
2022-09-05T21:59:30.621Z,4.40
2022-09-05T22:00:20.773Z,4.30
2022-09-05T22:02:49.629Z,4.10
2022-09-05T22:05:17.800Z,4.10
2022-09-05T22:07:46.264Z,4.30
2022-09-05T22:10:15.017Z,3.80
2022-09-05T22:12:42.988Z,4.20
2022-09-05T22:15:27.328Z,4.20
2022-09-05T22:18:16.875Z,4.20
2022-09-05T22:21:02.950Z,3.20
2022-09-05T22:23:44.449Z,3.90
2022-09-05T22:26:14.571Z,4.10
2022-09-05T22:28:48.946Z,4.30
2022-09-05T22:31:19.174Z,4.20
2022-09-05T22:33:50.826Z,4.80
2022-09-05T22:36:19.436Z,4.10
2022-09-05T22:38:47.779Z,4.50
2022-09-05T22:41:16.082Z,4.10
2022-09-05T22:43:46.430Z,3.60
2022-09-05T22:46:14.667Z,4.30
2022-09-05T22:48:42.662Z,4.00
2022-09-05T22:51:10.846Z,4.00
2022-09-05T22:53:39.010Z,4.00
2022-09-05T22:56:08.736Z,3.80
2022-09-05T22:58:43.037Z,4.10
2022-09-05T23:01:11.803Z,3.80
2022-09-05T23:03:39.748Z,3.60
2022-09-05T23:06:09.807Z,4.20
2022-09-05T23:08:37.850Z,4.80
2022-09-05T23:11:14.180Z,4.40
2022-09-05T23:13:42.548Z,4.50
2022-09-05T23:16:11.148Z,5.00
2022-09-05T23:18:40.125Z,5.00
2022-09-05T23:21:11.776Z,5.10
2022-09-05T23:23:41.354Z,5.00
2022-09-05T23:26:12.269Z,5.90
2022-09-05T23:28:43.282Z,6.00
2022-09-05T23:31:12.816Z,4.70
2022-09-05T23:33:45.116Z,5.30
2022-09-05T23:36:14.032Z,5.80
2022-09-05T23:38:42.899Z,5.30
2022-09-05T23:41:13.654Z,6.10
2022-09-05T23:43:42.696Z,5.60
2022-09-05T23:46:10.729Z,5.30
2022-09-05T23:48:38.622Z,5.00
2022-09-05T23:51:12.384Z,4.20
2022-09-05T23:53:41.163Z,4.90
2022-09-05T23:56:11.047Z,4.70
2022-09-05T23:58:39.093Z,5.50
